createdAt,value
2018-10-09T00:02:13.852Z,101812.70
2018-10-09T00:04:42.472Z,101821.78
2018-10-09T00:07:11.668Z,101813.06
2018-10-09T00:09:40.272Z,101812.72
2018-10-09T00:12:08.812Z,101811.88
2018-10-09T00:14:37.618Z,101820.66
2018-10-09T00:17:06.161Z,101824.05
2018-10-09T00:19:34.683Z,101828.75
2018-10-09T00:22:04.920Z,101826.54
2018-10-09T00:24:33.442Z,101826.18
2018-10-09T00:27:03.907Z,101820.44
2018-10-09T00:29:32.447Z,101812.36
2018-10-09T00:32:00.982Z,101813.34
2018-10-09T00:34:29.574Z,101818.39
2018-10-09T00:36:58.110Z,101819.59
2018-10-09T00:39:26.627Z,101818.83
2018-10-09T00:41:55.205Z,101821.57
2018-10-09T00:44:23.744Z,101824.77
2018-10-09T00:46:52.289Z,101826.47
2018-10-09T00:49:20.821Z,101822.80
2018-10-09T00:51:49.390Z,101811.55
2018-10-09T00:54:17.965Z,101812.05
2018-10-09T00:56:46.529Z,101812.75
2018-10-09T00:59:15.252Z,101809.86
2018-10-09T01:01:43.780Z,101816.30
2018-10-09T01:04:12.350Z,101809.14
2018-10-09T01:06:40.854Z,101815.56
2018-10-09T01:09:09.935Z,101829.02
2018-10-09T01:11:38.459Z,101826.98
2018-10-09T01:14:07.030Z,101820.80
2018-10-09T01:16:35.580Z,101823.63
2018-10-09T01:19:05.847Z,101823.58
2018-10-09T01:21:34.689Z,101823.94
2018-10-09T01:24:04.506Z,101814.23
2018-10-09T01:26:32.987Z,101803.81
2018-10-09T01:29:04.280Z,101811.76
2018-10-09T01:31:32.769Z,101819.13
2018-10-09T01:34:02.807Z,101812.91
2018-10-09T01:36:31.436Z,101808.56
2018-10-09T01:38:59.965Z,101803.05
2018-10-09T01:41:28.520Z,101801.38
2018-10-09T01:43:57.069Z,101803.20
2018-10-09T01:46:25.579Z,101796.84
2018-10-09T01:48:54.140Z,101789.97
2018-10-09T01:51:22.690Z,101792.78
2018-10-09T01:53:51.264Z,101791.30
2018-10-09T01:56:19.848Z,101792.11
2018-10-09T01:58:48.455Z,101779.55
2018-10-09T02:01:17.030Z,101783.09
2018-10-09T02:03:46.642Z,101777.09
2018-10-09T02:06:15.205Z,101773.05
2018-10-09T02:08:43.751Z,101762.30
2018-10-09T02:11:12.371Z,101756.36
2018-10-09T02:13:40.976Z,101754.68
2018-10-09T02:16:09.507Z,101744.67
2018-10-09T02:18:38.037Z,101743.55
2018-10-09T02:21:07.438Z,101739.86
2018-10-09T02:23:35.966Z,101736.60
2018-10-09T02:26:09.373Z,101738.29
2018-10-09T02:28:37.904Z,101738.51
2018-10-09T02:31:06.669Z,101737.39
2018-10-09T02:33:36.277Z,101741.87
2018-10-09T02:36:07.383Z,101739.91
2018-10-09T02:38:36.177Z,101738.61
2018-10-09T02:41:05.611Z,101743.30
2018-10-09T02:43:34.172Z,101733.40
2018-10-09T02:46:05.005Z,101739.63
2018-10-09T02:48:33.558Z,101736.13
2018-10-09T02:51:06.562Z,101740.00
2018-10-09T02:53:35.212Z,101741.70
2018-10-09T02:56:05.605Z,101741.45
2018-10-09T02:58:35.112Z,101744.31
2018-10-09T03:01:05.299Z,101750.00
2018-10-09T03:03:33.858Z,101746.09
2018-10-09T03:06:04.954Z,101750.69
2018-10-09T03:08:33.506Z,101745.20
2018-10-09T03:11:03.714Z,101748.91
2018-10-09T03:13:32.432Z,101749.64
2018-10-09T03:16:00.931Z,101744.59
2018-10-09T03:18:29.445Z,101741.86
2018-10-09T03:20:58.185Z,101741.13
2018-10-09T03:23:26.753Z,101732.66
2018-10-09T03:25:55.301Z,101734.52
2018-10-09T03:28:23.873Z,101741.06
2018-10-09T03:30:52.511Z,101747.89
2018-10-09T03:33:21.025Z,101743.71
2018-10-09T03:35:49.552Z,101737.63
2018-10-09T03:38:18.120Z,101742.47
2018-10-09T03:40:46.750Z,101747.61
2018-10-09T03:43:15.316Z,101747.53
2018-10-09T03:45:44.100Z,101757.18
2018-10-09T03:48:12.668Z,101754.38
2018-10-09T03:50:41.601Z,101751.74
2018-10-09T03:53:10.165Z,101744.95
2018-10-09T03:55:38.661Z,101751.91
2018-10-09T03:58:07.557Z,101751.02
2018-10-09T04:00:36.074Z,101751.27
2018-10-09T04:03:05.243Z,101747.23
2018-10-09T04:05:33.781Z,101750.28
2018-10-09T04:08:03.703Z,101751.87
2018-10-09T04:10:32.248Z,101752.43
2018-10-09T04:13:00.822Z,101753.44
2018-10-09T04:15:29.331Z,101752.35
2018-10-09T04:17:58.153Z,101746.33
2018-10-09T04:20:27.060Z,101742.17
2018-10-09T04:22:55.556Z,101746.42
2018-10-09T04:25:24.042Z,101747.14
2018-10-09T04:27:52.860Z,101750.48
2018-10-09T04:30:21.424Z,101745.17
2018-10-09T04:32:50.581Z,101748.73
2018-10-09T04:35:21.384Z,101746.03
2018-10-09T04:37:50.299Z,101743.70
2018-10-09T04:40:19.203Z,101748.87
2018-10-09T04:42:47.819Z,101743.99
2018-10-09T04:45:16.488Z,101741.86
2018-10-09T04:47:45.046Z,101736.12
2018-10-09T04:50:15.559Z,101739.45
2018-10-09T04:52:44.124Z,101733.72
2018-10-09T04:55:12.608Z,101741.86
2018-10-09T04:57:41.164Z,101752.27
2018-10-09T05:00:10.559Z,101751.14
2018-10-09T05:02:39.104Z,101755.53
2018-10-09T05:05:07.715Z,101757.02
2018-10-09T05:07:36.316Z,101752.34
2018-10-09T05:10:07.296Z,101757.72
2018-10-09T05:12:35.934Z,101750.66
2018-10-09T05:15:05.376Z,101749.59
2018-10-09T05:17:38.522Z,101749.06
2018-10-09T05:20:09.136Z,101742.55
2018-10-09T05:22:37.686Z,101744.74
2018-10-09T05:25:06.367Z,101741.87
2018-10-09T05:27:34.926Z,101738.52
2018-10-09T05:30:05.413Z,101742.55
2018-10-09T05:32:34.164Z,101748.81
2018-10-09T05:35:04.844Z,101749.66
2018-10-09T05:37:33.431Z,101756.21
2018-10-09T05:40:03.702Z,101755.44
2018-10-09T05:42:32.307Z,101758.78
2018-10-09T05:45:00.771Z,101766.54
2018-10-09T05:47:29.557Z,101779.30
2018-10-09T05:49:58.145Z,101781.34
2018-10-09T05:52:26.994Z,101777.73
2018-10-09T05:54:55.414Z,101772.84
2018-10-09T05:57:24.301Z,101773.69
2018-10-09T05:59:52.822Z,101782.74
2018-10-09T06:02:21.366Z,101786.30
2018-10-09T06:04:49.954Z,101797.05
2018-10-09T06:07:18.772Z,101786.45
2018-10-09T06:09:47.374Z,101781.48
2018-10-09T06:12:16.005Z,101780.48
2018-10-09T06:14:44.757Z,101780.28
2018-10-09T06:17:13.390Z,101783.31
2018-10-09T06:19:41.909Z,101793.50
2018-10-09T06:22:10.433Z,101798.33
2018-10-09T06:24:38.990Z,101804.02
2018-10-09T06:27:08.259Z,101809.95
2018-10-09T06:29:37.076Z,101808.08
2018-10-09T06:32:05.667Z,101817.22
2018-10-09T06:34:34.218Z,101813.68
2018-10-09T06:37:04.832Z,101809.92
2018-10-09T06:39:33.356Z,101802.16
2018-10-09T06:42:02.779Z,101801.36
2018-10-09T06:44:31.463Z,101800.80
2018-10-09T06:47:00.729Z,101810.04
2018-10-09T06:49:29.651Z,101805.90
2018-10-09T06:51:58.139Z,101805.74
2018-10-09T06:54:26.729Z,101803.25
2018-10-09T06:56:55.988Z,101809.42
2018-10-09T06:59:24.572Z,101814.44
2018-10-09T07:01:53.308Z,101806.78
2018-10-09T07:04:22.071Z,101821.44
2018-10-09T07:06:50.753Z,101821.37
2018-10-09T07:09:19.315Z,101822.89
2018-10-09T07:11:47.837Z,101827.45
2018-10-09T07:14:16.498Z,101827.13
2018-10-09T07:16:45.494Z,101830.97
2018-10-09T07:19:14.017Z,101836.40
2018-10-09T07:21:42.627Z,101832.53
2018-10-09T07:24:11.463Z,101834.14
2018-10-09T07:26:40.106Z,101840.91
2018-10-09T07:29:08.680Z,101847.20
2018-10-09T07:31:37.265Z,101846.13
2018-10-09T07:34:05.803Z,101851.23
2018-10-09T07:36:34.352Z,101861.53
2018-10-09T07:39:06.822Z,101873.75
2018-10-09T07:41:35.493Z,101870.08
2018-10-09T07:44:05.260Z,101878.43
2018-10-09T07:46:33.993Z,101875.40
2018-10-09T07:49:03.817Z,101880.41
2018-10-09T07:51:32.352Z,101875.28
2018-10-09T07:54:00.986Z,101881.86
2018-10-09T07:56:29.532Z,101881.88
2018-10-09T07:58:58.091Z,101886.56
2018-10-09T08:01:26.688Z,101894.97
2018-10-09T08:03:55.441Z,101891.08
2018-10-09T08:06:23.996Z,101902.39
2018-10-09T08:08:52.468Z,101899.77
2018-10-09T08:11:21.049Z,101893.80
2018-10-09T08:13:49.821Z,101894.20
2018-10-09T08:16:18.436Z,101893.13
2018-10-09T08:18:46.893Z,101897.95
2018-10-09T08:21:16.546Z,101892.02
2018-10-09T08:23:45.093Z,101893.72
2018-10-09T08:26:13.911Z,101883.08
2018-10-09T08:28:42.469Z,101884.63
2018-10-09T08:31:11.011Z,101892.36
2018-10-09T08:33:39.973Z,101893.61
2018-10-09T08:36:08.489Z,101902.27
2018-10-09T08:38:38.232Z,101899.52
2018-10-09T08:41:07.071Z,101899.66
2018-10-09T08:43:35.561Z,101893.88
2018-10-09T08:46:05.167Z,101890.53
2018-10-09T08:48:33.702Z,101889.21
2018-10-09T08:51:03.494Z,101887.28
2018-10-09T08:53:32.504Z,101893.29
2018-10-09T08:56:02.757Z,101885.88
2018-10-09T08:58:31.354Z,101894.37
2018-10-09T09:01:00.112Z,101899.62
2018-10-09T09:03:28.728Z,101898.88
2018-10-09T09:05:57.224Z,101896.52
2018-10-09T09:08:25.809Z,101891.72
2018-10-09T09:10:54.369Z,101895.95
2018-10-09T09:13:22.923Z,101898.80
2018-10-09T09:15:51.565Z,101893.38
2018-10-09T09:18:20.214Z,101896.46
2018-10-09T09:20:48.843Z,101891.28
2018-10-09T09:23:17.413Z,101891.83
2018-10-09T09:25:45.952Z,101890.98
2018-10-09T09:28:14.476Z,101882.64
2018-10-09T09:30:42.968Z,101884.39
2018-10-09T09:33:11.504Z,101885.70
2018-10-09T09:35:40.123Z,101886.33
2018-10-09T09:38:08.656Z,101880.26
2018-10-09T09:40:37.212Z,101878.27
2018-10-09T09:43:06.364Z,101880.77
2018-10-09T09:45:34.931Z,101873.05
2018-10-09T09:48:05.595Z,101867.37
2018-10-09T09:50:35.776Z,101869.95
2018-10-09T09:53:05.343Z,101871.72
2018-10-09T09:55:33.868Z,101877.51
2018-10-09T09:58:03.802Z,101870.77
2018-10-09T10:00:38.122Z,101868.23
2018-10-09T10:03:06.650Z,101871.06
2018-10-09T10:05:35.651Z,101870.20
2018-10-09T10:08:04.757Z,101870.45
2018-10-09T10:10:33.244Z,101871.06
2018-10-09T10:13:02.821Z,101872.61
2018-10-09T10:15:31.750Z,101869.17
2018-10-09T10:18:00.458Z,101873.20
2018-10-09T10:20:28.958Z,101870.55
2018-10-09T10:22:57.503Z,101875.69
2018-10-09T10:25:26.047Z,101877.42
2018-10-09T10:27:54.644Z,101878.56
2018-10-09T10:30:23.272Z,101881.61
2018-10-09T10:32:51.849Z,101881.80
2018-10-09T10:35:21.413Z,101881.09
2018-10-09T10:37:50.001Z,101875.36
2018-10-09T10:40:18.557Z,101880.12
2018-10-09T10:42:47.061Z,101880.92
2018-10-09T10:45:15.698Z,101876.92
2018-10-09T10:47:44.282Z,101873.81
2018-10-09T10:50:14.238Z,101872.52
2018-10-09T10:52:42.733Z,101869.97
2018-10-09T10:55:11.251Z,101862.17
2018-10-09T10:57:39.953Z,101866.51
2018-10-09T11:00:08.978Z,101859.33
2018-10-09T11:02:37.550Z,101860.05
2018-10-09T11:05:06.214Z,101857.50
2018-10-09T11:07:36.432Z,101853.36
2018-10-09T11:10:06.211Z,101852.59
2018-10-09T11:12:35.464Z,101851.13
2018-10-09T11:15:05.677Z,101850.93
2018-10-09T11:17:34.178Z,101851.89
2018-10-09T11:20:03.875Z,101852.89
2018-10-09T11:22:32.447Z,101852.16
2018-10-09T11:25:02.705Z,101853.43
2018-10-09T11:27:31.308Z,101846.25
2018-10-09T11:29:59.899Z,101843.20
2018-10-09T11:32:28.441Z,101838.34
2018-10-09T11:34:57.004Z,101836.91
2018-10-09T11:37:25.864Z,101831.61
2018-10-09T11:39:54.938Z,101838.03
2018-10-09T11:42:23.997Z,101839.20
2018-10-09T11:44:56.129Z,101830.02
2018-10-09T11:47:24.704Z,101831.06
2018-10-09T11:49:53.258Z,101827.20
2018-10-09T11:52:21.751Z,101823.70
2018-10-09T11:54:50.298Z,101821.05
2018-10-09T11:57:18.854Z,101819.09
2018-10-09T11:59:47.371Z,101822.23
2018-10-09T12:02:15.922Z,101815.89
2018-10-09T12:04:44.730Z,101812.24
2018-10-09T12:07:13.722Z,101813.86
2018-10-09T12:09:44.828Z,101815.04
2018-10-09T12:12:13.588Z,101809.16
2018-10-09T12:14:42.122Z,101807.68
2018-10-09T12:17:11.485Z,101808.79
2018-10-09T12:19:40.109Z,101804.18
2018-10-09T12:22:08.825Z,101802.94
2018-10-09T12:24:37.378Z,101797.39
2018-10-09T12:27:05.976Z,101800.14
2018-10-09T12:29:34.845Z,101798.41
2018-10-09T12:32:05.407Z,101796.03
2018-10-09T12:34:34.127Z,101795.92
2018-10-09T12:37:04.272Z,101783.36
2018-10-09T12:39:32.789Z,101784.47
2018-10-09T12:42:02.774Z,101779.97
2018-10-09T12:44:31.314Z,101776.23
2018-10-09T12:46:59.871Z,101776.41
2018-10-09T12:49:28.433Z,101771.77
2018-10-09T12:51:57.135Z,101772.69
2018-10-09T12:54:25.833Z,101768.38
2018-10-09T12:56:54.351Z,101766.11
2018-10-09T12:59:22.871Z,101766.58
2018-10-09T13:01:51.446Z,101758.54
2018-10-09T13:04:20.204Z,101764.49
2018-10-09T13:06:48.740Z,101763.55
2018-10-09T13:09:17.289Z,101755.27
2018-10-09T13:11:46.195Z,101759.83
2018-10-09T13:14:14.683Z,101757.82
2018-10-09T13:16:43.201Z,101758.33
2018-10-09T13:19:11.777Z,101762.27
2018-10-09T13:21:41.104Z,101764.95
2018-10-09T13:24:09.458Z,101761.45
2018-10-09T13:26:38.094Z,101763.02
2018-10-09T13:29:06.618Z,101761.71
2018-10-09T13:31:35.152Z,101762.23
2018-10-09T13:34:07.941Z,101758.73
2018-10-09T13:36:36.710Z,101752.77
2018-10-09T13:39:08.463Z,101760.28
2018-10-09T13:41:37.013Z,101759.45
2018-10-09T13:44:05.596Z,101747.81
2018-10-09T13:46:34.070Z,101751.59
2018-10-09T13:49:04.041Z,101756.38
2018-10-09T13:51:32.538Z,101755.64
2018-10-09T13:54:03.044Z,101752.81
2018-10-09T13:56:31.677Z,101749.84
2018-10-09T13:59:00.614Z,101751.85
2018-10-09T14:01:29.188Z,101750.11
2018-10-09T14:03:57.725Z,101750.20
2018-10-09T14:06:26.666Z,101752.69
2018-10-09T14:08:55.164Z,101757.58
2018-10-09T14:11:23.676Z,101752.20
2018-10-09T14:13:52.219Z,101748.60
2018-10-09T14:16:20.802Z,101747.87
2018-10-09T14:18:49.297Z,101744.75
2018-10-09T14:21:17.898Z,101752.03
2018-10-09T14:23:46.456Z,101749.77
2018-10-09T14:26:15.338Z,101751.52
2018-10-09T14:28:43.864Z,101750.52
2018-10-09T14:31:12.409Z,101747.55
2018-10-09T14:33:41.043Z,101751.80
2018-10-09T14:36:09.936Z,101749.53
2018-10-09T14:38:38.504Z,101744.57
2018-10-09T14:41:07.051Z,101745.07
2018-10-09T14:43:35.590Z,101752.11
2018-10-09T14:46:05.591Z,101749.53
2018-10-09T14:48:34.149Z,101752.77
2018-10-09T14:51:04.054Z,101741.34
2018-10-09T14:53:32.797Z,101738.37
2018-10-09T14:56:02.735Z,101733.74
2018-10-09T14:58:31.266Z,101740.91
2018-10-09T15:00:59.821Z,101741.45
2018-10-09T15:03:28.980Z,101740.59
2018-10-09T15:05:57.573Z,101736.34
2018-10-09T15:08:26.090Z,101737.83
2018-10-09T15:10:54.629Z,101742.33
2018-10-09T15:13:23.176Z,101746.02
2018-10-09T15:15:52.073Z,101747.95
2018-10-09T15:18:20.618Z,101743.44
2018-10-09T15:20:50.531Z,101745.80
2018-10-09T15:23:19.049Z,101751.58
2018-10-09T15:25:47.606Z,101758.45
2018-10-09T15:28:16.186Z,101751.47
2018-10-09T15:30:47.703Z,101750.66
2018-10-09T15:33:17.056Z,101747.70
2018-10-09T15:35:45.690Z,101746.11
2018-10-09T15:38:14.214Z,101757.58
2018-10-09T15:40:43.216Z,101748.14
2018-10-09T15:43:11.726Z,101748.30
2018-10-09T15:45:40.304Z,101745.59
2018-10-09T15:48:08.988Z,101749.50
2018-10-09T15:50:37.585Z,101753.92
2018-10-09T15:53:06.175Z,101756.73
2018-10-09T15:55:35.437Z,101750.38
2018-10-09T15:58:05.170Z,101747.34
2018-10-09T16:00:37.974Z,101744.72
2018-10-09T16:03:07.228Z,101749.75
2018-10-09T16:05:35.750Z,101748.83
2018-10-09T16:08:05.669Z,101750.42
2018-10-09T16:10:34.598Z,101751.06
2018-10-09T16:13:04.537Z,101749.52
2018-10-09T16:15:33.225Z,101755.16
2018-10-09T16:18:03.186Z,101756.44
2018-10-09T16:20:31.739Z,101753.31
2018-10-09T16:23:00.278Z,101753.45
2018-10-09T16:25:28.832Z,101756.83
2018-10-09T16:27:57.464Z,101750.98
2018-10-09T16:30:25.962Z,101748.42
2018-10-09T16:32:54.581Z,101744.73
2018-10-09T16:35:23.169Z,101740.93
2018-10-09T16:37:52.154Z,101747.63
2018-10-09T16:40:20.848Z,101751.86
2018-10-09T16:42:49.364Z,101746.94
2018-10-09T16:45:18.960Z,101757.60
2018-10-09T16:47:47.524Z,101751.98
2018-10-09T16:50:16.033Z,101751.86
2018-10-09T16:52:44.705Z,101755.55
2018-10-09T16:55:13.217Z,101752.02
2018-10-09T16:57:41.752Z,101753.28
2018-10-09T17:00:10.349Z,101760.56
2018-10-09T17:02:38.946Z,101758.86
2018-10-09T17:05:07.557Z,101764.02
2018-10-09T17:07:36.100Z,101758.10
2018-10-09T17:10:06.718Z,101756.84
2018-10-09T17:12:35.519Z,101750.44
2018-10-09T17:15:06.846Z,101756.91
2018-10-09T17:17:35.362Z,101752.81
2018-10-09T17:20:06.538Z,101767.25
2018-10-09T17:22:35.462Z,101766.67
2018-10-09T17:25:05.845Z,101765.42
2018-10-09T17:27:34.851Z,101767.76
2018-10-09T17:30:04.998Z,101768.70
2018-10-09T17:32:33.588Z,101765.80
2018-10-09T17:35:03.830Z,101771.02
2018-10-09T17:37:32.366Z,101768.82
2018-10-09T17:40:05.305Z,101779.68
2018-10-09T17:42:33.872Z,101773.31
2018-10-09T17:45:04.180Z,101773.30
2018-10-09T17:47:32.781Z,101773.19
2018-10-09T17:50:04.993Z,101778.19
2018-10-09T17:52:33.534Z,101782.23
2018-10-09T17:55:03.975Z,101777.85
2018-10-09T17:57:32.808Z,101777.09
2018-10-09T18:00:03.167Z,101771.47
2018-10-09T18:02:31.790Z,101771.31
2018-10-09T18:05:04.216Z,101770.34
2018-10-09T18:07:32.727Z,101775.94
2018-10-09T18:10:03.294Z,101774.66
2018-10-09T18:12:31.781Z,101774.66
2018-10-09T18:15:00.345Z,101769.73
2018-10-09T18:17:28.961Z,101772.61
2018-10-09T18:19:57.794Z,101768.05
2018-10-09T18:22:26.369Z,101772.72
2018-10-09T18:24:54.940Z,101777.06
2018-10-09T18:27:23.628Z,101774.44
2018-10-09T18:29:52.366Z,101774.09
2018-10-09T18:32:20.936Z,101774.12
2018-10-09T18:34:49.448Z,101778.06
2018-10-09T18:37:18.144Z,101780.20
2018-10-09T18:39:46.707Z,101775.76
2018-10-09T18:42:15.261Z,101773.62
2018-10-09T18:44:43.799Z,101772.09
2018-10-09T18:47:17.667Z,101779.30
2018-10-09T18:49:46.226Z,101781.67
2018-10-09T18:52:15.293Z,101780.36
2018-10-09T18:54:43.985Z,101779.02
2018-10-09T18:57:12.879Z,101779.80
2018-10-09T18:59:41.554Z,101782.17
2018-10-09T19:02:10.430Z,101773.20
2018-10-09T19:04:39.333Z,101776.20
2018-10-09T19:07:07.939Z,101779.05
2018-10-09T19:09:36.644Z,101781.87
2018-10-09T19:12:05.766Z,101784.21
2018-10-09T19:14:35.085Z,101786.45
2018-10-09T19:17:05.745Z,101798.61
2018-10-09T19:19:34.653Z,101800.55
2018-10-09T19:22:05.105Z,101794.58
2018-10-09T19:24:33.705Z,101797.13
2018-10-09T19:27:07.523Z,101799.25
2018-10-09T19:29:36.386Z,101801.77
2018-10-09T19:32:05.189Z,101801.19
2018-10-09T19:34:33.766Z,101801.52
2018-10-09T19:37:03.966Z,101802.08
2018-10-09T19:39:32.530Z,101804.20
2018-10-09T19:42:02.929Z,101803.69
2018-10-09T19:44:31.454Z,101804.16
2018-10-09T19:47:00.061Z,101808.25
2018-10-09T19:49:28.638Z,101804.54
2018-10-09T19:51:57.228Z,101809.98
2018-10-09T19:54:26.886Z,101815.78
2018-10-09T19:56:55.588Z,101814.50
2018-10-09T19:59:24.510Z,101817.20
2018-10-09T20:01:53.164Z,101817.58
2018-10-09T20:04:21.829Z,101822.01
2018-10-09T20:06:50.492Z,101825.47
2018-10-09T20:09:19.027Z,101822.43
2018-10-09T20:11:47.639Z,101825.00
2018-10-09T20:14:16.396Z,101820.02
2018-10-09T20:16:44.949Z,101827.52
2018-10-09T20:19:13.566Z,101830.30
2018-10-09T20:21:42.339Z,101828.91
2018-10-09T20:24:10.873Z,101830.59
2018-10-09T20:26:39.551Z,101819.38
2018-10-09T20:29:08.299Z,101821.11
2018-10-09T20:31:36.824Z,101819.96
2018-10-09T20:34:05.371Z,101817.30
2018-10-09T20:36:34.147Z,101817.19
2018-10-09T20:39:05.146Z,101820.27
2018-10-09T20:41:34.125Z,101822.44
2018-10-09T20:44:04.102Z,101828.58
2018-10-09T20:46:32.675Z,101825.28
2018-10-09T20:49:03.508Z,101826.96
2018-10-09T20:51:32.033Z,101823.82
2018-10-09T20:54:00.605Z,101824.40
2018-10-09T20:56:29.200Z,101821.18
2018-10-09T20:58:57.854Z,101827.12
2018-10-09T21:01:26.697Z,101828.44
2018-10-09T21:03:55.641Z,101824.30
2018-10-09T21:06:24.212Z,101825.01
2018-10-09T21:08:52.867Z,101823.70
2018-10-09T21:11:21.712Z,101817.84
2018-10-09T21:13:50.241Z,101817.56
2018-10-09T21:16:18.909Z,101818.95
2018-10-09T21:18:47.594Z,101813.29
2018-10-09T21:21:16.116Z,101812.28
2018-10-09T21:23:44.621Z,101809.48
2018-10-09T21:26:13.170Z,101805.77
2018-10-09T21:28:41.749Z,101809.88
2018-10-09T21:31:10.361Z,101804.42
2018-10-09T21:33:38.938Z,101809.64
2018-10-09T21:36:08.342Z,101809.37
2018-10-09T21:38:36.911Z,101805.56
2018-10-09T21:41:05.451Z,101804.83
2018-10-09T21:43:34.002Z,101804.56
2018-10-09T21:46:04.630Z,101803.85
2018-10-09T21:48:33.177Z,101805.97
2018-10-09T21:51:02.785Z,101797.44
2018-10-09T21:53:31.440Z,101800.75
2018-10-09T21:56:00.047Z,101796.00
2018-10-09T21:58:28.605Z,101804.98
2018-10-09T22:01:03.290Z,101797.30
2018-10-09T22:03:31.793Z,101800.19
2018-10-09T22:06:00.418Z,101797.08
2018-10-09T22:08:35.099Z,101800.56
2018-10-09T22:11:05.604Z,101809.36
2018-10-09T22:13:34.121Z,101798.54
2018-10-09T22:16:03.685Z,101802.49
2018-10-09T22:18:32.221Z,101799.07
2018-10-09T22:21:00.862Z,101793.97
2018-10-09T22:23:29.392Z,101786.70
2018-10-09T22:25:58.287Z,101785.22
2018-10-09T22:28:26.825Z,101798.20
2018-10-09T22:30:55.417Z,101787.52
2018-10-09T22:33:24.259Z,101792.27
2018-10-09T22:35:52.768Z,101789.57
2018-10-09T22:38:21.374Z,101791.78
2018-10-09T22:40:51.717Z,101794.52
2018-10-09T22:43:20.536Z,101795.42
2018-10-09T22:45:49.071Z,101797.53
2018-10-09T22:48:17.586Z,101786.53
2018-10-09T22:50:46.495Z,101794.70
2018-10-09T22:53:15.031Z,101788.64
2018-10-09T22:55:43.578Z,101795.37
2018-10-09T22:58:12.098Z,101792.17
2018-10-09T23:00:40.642Z,101789.14
2018-10-09T23:03:09.213Z,101789.84
2018-10-09T23:05:37.876Z,101789.90
2018-10-09T23:08:06.534Z,101788.47
2018-10-09T23:10:35.075Z,101791.19
2018-10-09T23:13:06.191Z,101796.31
2018-10-09T23:15:34.793Z,101791.29
2018-10-09T23:18:05.009Z,101787.95
2018-10-09T23:20:33.726Z,101792.71
2018-10-09T23:23:04.173Z,101799.05
2018-10-09T23:25:32.717Z,101796.00
2018-10-09T23:28:05.348Z,101799.70
2018-10-09T23:30:33.842Z,101801.62
2018-10-09T23:33:04.024Z,101794.82
2018-10-09T23:35:32.605Z,101798.21
2018-10-09T23:38:02.887Z,101803.04
2018-10-09T23:40:31.423Z,101800.77
2018-10-09T23:42:59.973Z,101790.86
2018-10-09T23:45:28.814Z,101790.02
2018-10-09T23:48:03.149Z,101791.08
2018-10-09T23:50:31.684Z,101795.42
2018-10-09T23:53:00.210Z,101787.77
2018-10-09T23:55:28.984Z,101791.02
2018-10-09T23:57:57.507Z,101789.89
